sensor_id;sensor_type;location;lat;lon;timestamp;P1;durP1;ratioP1;P2;durP2;ratioP2
25531;SDS011;13429;48.816;9.118;2022-08-30T00:01:55;6.53;;;4.93;;
25531;SDS011;13429;48.816;9.118;2022-08-30T00:04:21;7.95;;;5.45;;
25531;SDS011;13429;48.816;9.118;2022-08-30T00:06:47;10.13;;;6.38;;
25531;SDS011;13429;48.816;9.118;2022-08-30T00:09:13;8.82;;;5.00;;
25531;SDS011;13429;48.816;9.118;2022-08-30T00:11:39;6.43;;;4.78;;
25531;SDS011;13429;48.816;9.118;2022-08-30T00:14:05;8.15;;;5.32;;
25531;SDS011;13429;48.816;9.118;2022-08-30T00:16:31;9.63;;;5.65;;
25531;SDS011;13429;48.816;9.118;2022-08-30T00:18:57;6.70;;;4.93;;
25531;SDS011;13429;48.816;9.118;2022-08-30T00:21:24;7.57;;;5.22;;
25531;SDS011;13429;48.816;9.118;2022-08-30T00:23:51;7.50;;;5.10;;
25531;SDS011;13429;48.816;9.118;2022-08-30T00:26:17;6.85;;;5.00;;
25531;SDS011;13429;48.816;9.118;2022-08-30T00:28:43;7.20;;;5.20;;
25531;SDS011;13429;48.816;9.118;2022-08-30T00:31:09;7.75;;;4.85;;
25531;SDS011;13429;48.816;9.118;2022-08-30T00:33:37;8.02;;;4.80;;
25531;SDS011;13429;48.816;9.118;2022-08-30T00:36:03;7.72;;;5.32;;
25531;SDS011;13429;48.816;9.118;2022-08-30T00:38:29;7.07;;;4.97;;
25531;SDS011;13429;48.816;9.118;2022-08-30T00:40:56;6.60;;;4.32;;
25531;SDS011;13429;48.816;9.118;2022-08-30T00:43:28;7.30;;;5.20;;
25531;SDS011;13429;48.816;9.118;2022-08-30T00:45:54;10.02;;;5.80;;
25531;SDS011;13429;48.816;9.118;2022-08-30T00:48:20;9.55;;;5.78;;
25531;SDS011;13429;48.816;9.118;2022-08-30T00:50:57;9.40;;;5.75;;
25531;SDS011;13429;48.816;9.118;2022-08-30T00:53:26;11.77;;;5.55;;
25531;SDS011;13429;48.816;9.118;2022-08-30T00:55:54;7.30;;;5.47;;
25531;SDS011;13429;48.816;9.118;2022-08-30T00:58:21;6.90;;;5.47;;
25531;SDS011;13429;48.816;9.118;2022-08-30T01:00:51;7.05;;;4.88;;
25531;SDS011;13429;48.816;9.118;2022-08-30T01:03:18;12.10;;;6.00;;
25531;SDS011;13429;48.816;9.118;2022-08-30T01:05:45;7.88;;;5.63;;
25531;SDS011;13429;48.816;9.118;2022-08-30T01:08:12;8.23;;;5.38;;
25531;SDS011;13429;48.816;9.118;2022-08-30T01:10:39;7.88;;;5.60;;
25531;SDS011;13429;48.816;9.118;2022-08-30T01:13:06;7.93;;;5.72;;
25531;SDS011;13429;48.816;9.118;2022-08-30T01:15:33;8.80;;;5.38;;
25531;SDS011;13429;48.816;9.118;2022-08-30T01:18:00;8.88;;;6.07;;
25531;SDS011;13429;48.816;9.118;2022-08-30T01:20:28;8.50;;;5.65;;
25531;SDS011;13429;48.816;9.118;2022-08-30T01:23:05;9.63;;;5.40;;
25531;SDS011;13429;48.816;9.118;2022-08-30T01:25:32;9.27;;;5.78;;
25531;SDS011;13429;48.816;9.118;2022-08-30T01:28:00;11.48;;;5.43;;
25531;SDS011;13429;48.816;9.118;2022-08-30T01:30:28;7.80;;;5.10;;
25531;SDS011;13429;48.816;9.118;2022-08-30T01:32:59;7.22;;;5.05;;
25531;SDS011;13429;48.816;9.118;2022-08-30T01:35:26;7.65;;;5.07;;
25531;SDS011;13429;48.816;9.118;2022-08-30T01:37:52;11.82;;;6.78;;
25531;SDS011;13429;48.816;9.118;2022-08-30T01:40:18;11.05;;;6.40;;
25531;SDS011;13429;48.816;9.118;2022-08-30T01:42:45;8.32;;;5.40;;
25531;SDS011;13429;48.816;9.118;2022-08-30T01:45:11;8.48;;;5.35;;
25531;SDS011;13429;48.816;9.118;2022-08-30T01:47:37;8.30;;;5.72;;
25531;SDS011;13429;48.816;9.118;2022-08-30T01:50:05;8.63;;;6.25;;
25531;SDS011;13429;48.816;9.118;2022-08-30T01:52:31;8.32;;;5.93;;
25531;SDS011;13429;48.816;9.118;2022-08-30T01:54:58;7.20;;;5.28;;
25531;SDS011;13429;48.816;9.118;2022-08-30T01:57:24;7.03;;;5.45;;
25531;SDS011;13429;48.816;9.118;2022-08-30T01:59:51;8.13;;;5.35;;
25531;SDS011;13429;48.816;9.118;2022-08-30T02:02:18;7.82;;;5.57;;
25531;SDS011;13429;48.816;9.118;2022-08-30T02:04:45;7.93;;;5.60;;
25531;SDS011;13429;48.816;9.118;2022-08-30T02:07:11;8.88;;;5.63;;
25531;SDS011;13429;48.816;9.118;2022-08-30T02:09:37;8.32;;;5.18;;
25531;SDS011;13429;48.816;9.118;2022-08-30T02:12:04;6.63;;;5.38;;
25531;SDS011;13429;48.816;9.118;2022-08-30T02:14:31;7.45;;;4.95;;
25531;SDS011;13429;48.816;9.118;2022-08-30T02:16:57;7.60;;;5.45;;
25531;SDS011;13429;48.816;9.118;2022-08-30T02:19:23;8.60;;;5.75;;
25531;SDS011;13429;48.816;9.118;2022-08-30T02:21:49;10.63;;;5.68;;
25531;SDS011;13429;48.816;9.118;2022-08-30T02:24:15;8.05;;;5.35;;
25531;SDS011;13429;48.816;9.118;2022-08-30T02:26:41;7.32;;;5.55;;
25531;SDS011;13429;48.816;9.118;2022-08-30T02:29:07;9.88;;;6.15;;
25531;SDS011;13429;48.816;9.118;2022-08-30T02:31:34;12.02;;;6.00;;
25531;SDS011;13429;48.816;9.118;2022-08-30T02:34:00;9.27;;;5.45;;
25531;SDS011;13429;48.816;9.118;2022-08-30T02:36:26;8.60;;;5.82;;
25531;SDS011;13429;48.816;9.118;2022-08-30T02:38:52;9.70;;;6.07;;
25531;SDS011;13429;48.816;9.118;2022-08-30T02:41:18;8.75;;;5.97;;
25531;SDS011;13429;48.816;9.118;2022-08-30T02:43:44;9.30;;;5.68;;
25531;SDS011;13429;48.816;9.118;2022-08-30T02:46:10;11.00;;;5.65;;
25531;SDS011;13429;48.816;9.118;2022-08-30T02:48:37;10.68;;;6.50;;
25531;SDS011;13429;48.816;9.118;2022-08-30T02:51:04;10.32;;;6.13;;
25531;SDS011;13429;48.816;9.118;2022-08-30T02:53:31;10.13;;;6.28;;
25531;SDS011;13429;48.816;9.118;2022-08-30T02:55:57;10.93;;;6.38;;
25531;SDS011;13429;48.816;9.118;2022-08-30T02:58:23;9.43;;;5.38;;
25531;SDS011;13429;48.816;9.118;2022-08-30T03:00:49;9.98;;;6.55;;
25531;SDS011;13429;48.816;9.118;2022-08-30T03:03:15;7.85;;;6.00;;
25531;SDS011;13429;48.816;9.118;2022-08-30T03:05:41;8.93;;;6.68;;
25531;SDS011;13429;48.816;9.118;2022-08-30T03:08:07;9.98;;;6.35;;
25531;SDS011;13429;48.816;9.118;2022-08-30T03:10:33;9.32;;;6.10;;
25531;SDS011;13429;48.816;9.118;2022-08-30T03:13:00;8.77;;;6.13;;
25531;SDS011;13429;48.816;9.118;2022-08-30T03:15:26;7.43;;;5.32;;
25531;SDS011;13429;48.816;9.118;2022-08-30T03:17:52;9.85;;;6.80;;
25531;SDS011;13429;48.816;9.118;2022-08-30T03:20:19;8.40;;;6.13;;
25531;SDS011;13429;48.816;9.118;2022-08-30T03:22:46;8.43;;;6.28;;
25531;SDS011;13429;48.816;9.118;2022-08-30T03:25:12;8.27;;;5.65;;
25531;SDS011;13429;48.816;9.118;2022-08-30T03:27:39;10.50;;;6.30;;
25531;SDS011;13429;48.816;9.118;2022-08-30T03:30:05;6.85;;;5.25;;
25531;SDS011;13429;48.816;9.118;2022-08-30T03:32:31;7.93;;;5.65;;
25531;SDS011;13429;48.816;9.118;2022-08-30T03:34:57;8.10;;;5.88;;
25531;SDS011;13429;48.816;9.118;2022-08-30T03:37:23;9.93;;;6.18;;
25531;SDS011;13429;48.816;9.118;2022-08-30T03:39:49;11.57;;;6.38;;
25531;SDS011;13429;48.816;9.118;2022-08-30T03:42:15;8.18;;;5.82;;
25531;SDS011;13429;48.816;9.118;2022-08-30T03:44:41;11.77;;;6.93;;
25531;SDS011;13429;48.816;9.118;2022-08-30T03:47:07;8.82;;;6.25;;
25531;SDS011;13429;48.816;9.118;2022-08-30T03:49:33;12.18;;;5.93;;
25531;SDS011;13429;48.816;9.118;2022-08-30T03:51:59;8.32;;;5.72;;
25531;SDS011;13429;48.816;9.118;2022-08-30T03:54:25;8.75;;;6.03;;
25531;SDS011;13429;48.816;9.118;2022-08-30T03:56:51;9.85;;;6.28;;
25531;SDS011;13429;48.816;9.118;2022-08-30T03:59:17;6.40;;;5.22;;
25531;SDS011;13429;48.816;9.118;2022-08-30T04:01:43;8.15;;;5.72;;
25531;SDS011;13429;48.816;9.118;2022-08-30T04:04:11;9.98;;;6.22;;
25531;SDS011;13429;48.816;9.118;2022-08-30T04:06:37;9.77;;;6.05;;
25531;SDS011;13429;48.816;9.118;2022-08-30T04:09:03;9.55;;;6.45;;
25531;SDS011;13429;48.816;9.118;2022-08-30T04:11:29;11.77;;;6.90;;
25531;SDS011;13429;48.816;9.118;2022-08-30T04:13:56;10.65;;;6.32;;
25531;SDS011;13429;48.816;9.118;2022-08-30T04:16:22;9.25;;;6.43;;
25531;SDS011;13429;48.816;9.118;2022-08-30T04:18:48;11.07;;;6.55;;
25531;SDS011;13429;48.816;9.118;2022-08-30T04:21:14;8.25;;;6.22;;
25531;SDS011;13429;48.816;9.118;2022-08-30T04:23:41;13.10;;;7.13;;
25531;SDS011;13429;48.816;9.118;2022-08-30T04:26:08;11.02;;;6.68;;
25531;SDS011;13429;48.816;9.118;2022-08-30T04:28:34;10.13;;;5.55;;
25531;SDS011;13429;48.816;9.118;2022-08-30T04:31:06;9.77;;;6.47;;
25531;SDS011;13429;48.816;9.118;2022-08-30T04:33:33;8.88;;;6.57;;
25531;SDS011;13429;48.816;9.118;2022-08-30T04:36:00;10.43;;;6.43;;
25531;SDS011;13429;48.816;9.118;2022-08-30T04:38:28;8.98;;;5.72;;
25531;SDS011;13429;48.816;9.118;2022-08-30T04:40:54;8.05;;;5.80;;
25531;SDS011;13429;48.816;9.118;2022-08-30T04:43:20;8.95;;;6.68;;
25531;SDS011;13429;48.816;9.118;2022-08-30T04:45:46;8.15;;;5.70;;
25531;SDS011;13429;48.816;9.118;2022-08-30T04:48:13;6.97;;;5.97;;
25531;SDS011;13429;48.816;9.118;2022-08-30T04:50:41;10.43;;;6.15;;
25531;SDS011;13429;48.816;9.118;2022-08-30T04:53:07;11.27;;;6.47;;
25531;SDS011;13429;48.816;9.118;2022-08-30T04:55:33;8.63;;;6.10;;
25531;SDS011;13429;48.816;9.118;2022-08-30T04:57:59;8.40;;;6.13;;
25531;SDS011;13429;48.816;9.118;2022-08-30T05:00:26;9.35;;;5.93;;
25531;SDS011;13429;48.816;9.118;2022-08-30T05:02:52;9.32;;;6.85;;
25531;SDS011;13429;48.816;9.118;2022-08-30T05:05:18;13.52;;;6.82;;
25531;SDS011;13429;48.816;9.118;2022-08-30T05:08:03;8.40;;;6.50;;
25531;SDS011;13429;48.816;9.118;2022-08-30T05:10:29;10.40;;;6.10;;
25531;SDS011;13429;48.816;9.118;2022-08-30T05:12:55;10.55;;;6.90;;
25531;SDS011;13429;48.816;9.118;2022-08-30T05:15:21;13.35;;;7.65;;
25531;SDS011;13429;48.816;9.118;2022-08-30T05:17:47;11.38;;;8.13;;
25531;SDS011;13429;48.816;9.118;2022-08-30T05:20:13;13.77;;;9.07;;
25531;SDS011;13429;48.816;9.118;2022-08-30T05:22:41;12.52;;;7.80;;
25531;SDS011;13429;48.816;9.118;2022-08-30T05:25:14;17.10;;;8.32;;
25531;SDS011;13429;48.816;9.118;2022-08-30T05:27:40;8.73;;;6.60;;
25531;SDS011;13429;48.816;9.118;2022-08-30T05:30:06;15.63;;;7.72;;
25531;SDS011;13429;48.816;9.118;2022-08-30T05:32:32;11.90;;;6.93;;
25531;SDS011;13429;48.816;9.118;2022-08-30T05:34:58;9.75;;;7.57;;
25531;SDS011;13429;48.816;9.118;2022-08-30T05:37:25;9.75;;;6.45;;
25531;SDS011;13429;48.816;9.118;2022-08-30T05:39:51;9.18;;;6.72;;
25531;SDS011;13429;48.816;9.118;2022-08-30T05:42:17;13.02;;;7.57;;
25531;SDS011;13429;48.816;9.118;2022-08-30T05:44:43;15.77;;;7.88;;
25531;SDS011;13429;48.816;9.118;2022-08-30T05:47:10;11.50;;;7.22;;
25531;SDS011;13429;48.816;9.118;2022-08-30T05:49:36;11.38;;;6.90;;
25531;SDS011;13429;48.816;9.118;2022-08-30T05:52:02;15.10;;;7.72;;
25531;SDS011;13429;48.816;9.118;2022-08-30T05:54:29;10.65;;;7.40;;
25531;SDS011;13429;48.816;9.118;2022-08-30T05:56:55;13.07;;;8.38;;
25531;SDS011;13429;48.816;9.118;2022-08-30T05:59:21;10.38;;;7.05;;
25531;SDS011;13429;48.816;9.118;2022-08-30T06:01:47;11.35;;;7.28;;
25531;SDS011;13429;48.816;9.118;2022-08-30T06:04:13;12.02;;;7.70;;
25531;SDS011;13429;48.816;9.118;2022-08-30T06:06:40;11.30;;;7.28;;
25531;SDS011;13429;48.816;9.118;2022-08-30T06:09:07;10.05;;;7.55;;
25531;SDS011;13429;48.816;9.118;2022-08-30T06:11:33;14.57;;;8.88;;
25531;SDS011;13429;48.816;9.118;2022-08-30T06:14:00;11.45;;;8.13;;
25531;SDS011;13429;48.816;9.118;2022-08-30T06:16:26;11.85;;;8.30;;
25531;SDS011;13429;48.816;9.118;2022-08-30T06:18:53;15.40;;;8.70;;
25531;SDS011;13429;48.816;9.118;2022-08-30T06:21:22;12.20;;;8.00;;
25531;SDS011;13429;48.816;9.118;2022-08-30T06:23:49;10.88;;;8.00;;
25531;SDS011;13429;48.816;9.118;2022-08-30T06:26:16;14.93;;;8.77;;
25531;SDS011;13429;48.816;9.118;2022-08-30T06:28:42;12.45;;;7.55;;
25531;SDS011;13429;48.816;9.118;2022-08-30T06:31:10;14.85;;;9.18;;
25531;SDS011;13429;48.816;9.118;2022-08-30T06:33:37;12.90;;;8.50;;
25531;SDS011;13429;48.816;9.118;2022-08-30T06:36:05;15.65;;;8.70;;
25531;SDS011;13429;48.816;9.118;2022-08-30T06:38:32;14.30;;;8.55;;
25531;SDS011;13429;48.816;9.118;2022-08-30T06:40:58;18.20;;;10.23;;
25531;SDS011;13429;48.816;9.118;2022-08-30T06:43:24;15.77;;;9.35;;
25531;SDS011;13429;48.816;9.118;2022-08-30T06:45:50;22.52;;;9.07;;
25531;SDS011;13429;48.816;9.118;2022-08-30T06:48:15;15.63;;;9.18;;
25531;SDS011;13429;48.816;9.118;2022-08-30T06:50:41;15.55;;;10.05;;
25531;SDS011;13429;48.816;9.118;2022-08-30T06:53:07;15.02;;;9.23;;
25531;SDS011;13429;48.816;9.118;2022-08-30T06:55:33;16.10;;;9.30;;
25531;SDS011;13429;48.816;9.118;2022-08-30T06:57:59;20.05;;;9.55;;
25531;SDS011;13429;48.816;9.118;2022-08-30T07:00:26;19.27;;;10.27;;
25531;SDS011;13429;48.816;9.118;2022-08-30T07:02:52;16.90;;;9.10;;
25531;SDS011;13429;48.816;9.118;2022-08-30T07:05:18;12.60;;;8.82;;
25531;SDS011;13429;48.816;9.118;2022-08-30T07:07:47;15.07;;;8.13;;
25531;SDS011;13429;48.816;9.118;2022-08-30T07:10:13;15.02;;;8.60;;
25531;SDS011;13429;48.816;9.118;2022-08-30T07:12:39;13.10;;;8.65;;
25531;SDS011;13429;48.816;9.118;2022-08-30T07:15:07;12.23;;;8.25;;
25531;SDS011;13429;48.816;9.118;2022-08-30T07:17:33;15.23;;;8.25;;
25531;SDS011;13429;48.816;9.118;2022-08-30T07:20:19;11.48;;;7.57;;
25531;SDS011;13429;48.816;9.118;2022-08-30T07:22:46;13.35;;;8.20;;
25531;SDS011;13429;48.816;9.118;2022-08-30T07:25:12;15.27;;;7.93;;
25531;SDS011;13429;48.816;9.118;2022-08-30T07:27:39;8.73;;;7.15;;
25531;SDS011;13429;48.816;9.118;2022-08-30T07:30:05;9.73;;;6.70;;
25531;SDS011;13429;48.816;9.118;2022-08-30T07:32:32;9.93;;;6.40;;
25531;SDS011;13429;48.816;9.118;2022-08-30T07:34:58;10.73;;;6.60;;
25531;SDS011;13429;48.816;9.118;2022-08-30T07:37:24;11.77;;;7.35;;
25531;SDS011;13429;48.816;9.118;2022-08-30T07:39:50;8.85;;;6.28;;
25531;SDS011;13429;48.816;9.118;2022-08-30T07:42:16;8.02;;;6.65;;
25531;SDS011;13429;48.816;9.118;2022-08-30T07:44:42;8.27;;;6.07;;
25531;SDS011;13429;48.816;9.118;2022-08-30T07:47:08;11.07;;;6.30;;
25531;SDS011;13429;48.816;9.118;2022-08-30T07:49:35;9.02;;;5.63;;
25531;SDS011;13429;48.816;9.118;2022-08-30T07:52:01;10.13;;;6.30;;
25531;SDS011;13429;48.816;9.118;2022-08-30T07:54:27;9.55;;;5.53;;
25531;SDS011;13429;48.816;9.118;2022-08-30T07:56:53;7.22;;;5.35;;
25531;SDS011;13429;48.816;9.118;2022-08-30T07:59:20;9.95;;;5.68;;
25531;SDS011;13429;48.816;9.118;2022-08-30T08:01:46;9.40;;;6.60;;
25531;SDS011;13429;48.816;9.118;2022-08-30T08:04:12;9.93;;;6.40;;
25531;SDS011;13429;48.816;9.118;2022-08-30T08:06:38;13.55;;;6.57;;
25531;SDS011;13429;48.816;9.118;2022-08-30T08:09:04;13.45;;;6.55;;
25531;SDS011;13429;48.816;9.118;2022-08-30T08:11:31;9.40;;;6.03;;
25531;SDS011;13429;48.816;9.118;2022-08-30T08:13:57;9.88;;;5.97;;
25531;SDS011;13429;48.816;9.118;2022-08-30T08:16:25;7.38;;;5.30;;
25531;SDS011;13429;48.816;9.118;2022-08-30T08:18:51;9.80;;;7.07;;
25531;SDS011;13429;48.816;9.118;2022-08-30T08:21:18;11.38;;;6.00;;
25531;SDS011;13429;48.816;9.118;2022-08-30T08:23:44;10.00;;;5.78;;
25531;SDS011;13429;48.816;9.118;2022-08-30T08:26:10;9.32;;;6.45;;
25531;SDS011;13429;48.816;9.118;2022-08-30T08:28:36;9.02;;;6.35;;
25531;SDS011;13429;48.816;9.118;2022-08-30T08:31:02;7.78;;;5.35;;
25531;SDS011;13429;48.816;9.118;2022-08-30T08:33:29;8.77;;;5.53;;
25531;SDS011;13429;48.816;9.118;2022-08-30T08:35:55;11.10;;;6.90;;
25531;SDS011;13429;48.816;9.118;2022-08-30T08:38:21;11.48;;;6.10;;
25531;SDS011;13429;48.816;9.118;2022-08-30T08:41:04;12.10;;;6.45;;
25531;SDS011;13429;48.816;9.118;2022-08-30T08:43:32;10.80;;;5.97;;
25531;SDS011;13429;48.816;9.118;2022-08-30T08:51:03;10.65;;;5.53;;
25531;SDS011;13429;48.816;9.118;2022-08-30T08:53:53;12.48;;;6.07;;
25531;SDS011;13429;48.816;9.118;2022-08-30T08:56:20;10.40;;;5.63;;
25531;SDS011;13429;48.816;9.118;2022-08-30T08:58:48;7.60;;;5.65;;
25531;SDS011;13429;48.816;9.118;2022-08-30T09:01:16;7.63;;;5.53;;
25531;SDS011;13429;48.816;9.118;2022-08-30T09:03:43;7.95;;;4.35;;
25531;SDS011;13429;48.816;9.118;2022-08-30T09:08:47;6.80;;;4.85;;
25531;SDS011;13429;48.816;9.118;2022-08-30T09:11:17;6.55;;;4.72;;
25531;SDS011;13429;48.816;9.118;2022-08-30T09:13:45;9.23;;;4.80;;
25531;SDS011;13429;48.816;9.118;2022-08-30T09:16:13;7.65;;;5.03;;
25531;SDS011;13429;48.816;9.118;2022-08-30T09:18:57;7.53;;;4.38;;
25531;SDS011;13429;48.816;9.118;2022-08-30T09:21:24;6.60;;;4.82;;
25531;SDS011;13429;48.816;9.118;2022-08-30T09:23:58;8.00;;;4.10;;
25531;SDS011;13429;48.816;9.118;2022-08-30T09:26:28;5.00;;;3.92;;
25531;SDS011;13429;48.816;9.118;2022-08-30T09:28:54;8.23;;;4.68;;
25531;SDS011;13429;48.816;9.118;2022-08-30T09:31:25;5.28;;;4.47;;
25531;SDS011;13429;48.816;9.118;2022-08-30T09:34:02;8.35;;;3.92;;
25531;SDS011;13429;48.816;9.118;2022-08-30T09:36:33;7.05;;;4.50;;
25531;SDS011;13429;48.816;9.118;2022-08-30T09:39:12;7.20;;;4.45;;
25531;SDS011;13429;48.816;9.118;2022-08-30T09:41:40;5.47;;;3.80;;
25531;SDS011;13429;48.816;9.118;2022-08-30T09:44:18;7.55;;;4.72;;
25531;SDS011;13429;48.816;9.118;2022-08-30T09:46:55;6.22;;;4.75;;
25531;SDS011;13429;48.816;9.118;2022-08-30T09:49:38;7.30;;;4.35;;
25531;SDS011;13429;48.816;9.118;2022-08-30T09:57:06;7.28;;;4.03;;
25531;SDS011;13429;48.816;9.118;2022-08-30T10:02:13;4.88;;;3.58;;
25531;SDS011;13429;48.816;9.118;2022-08-30T10:10:00;5.68;;;3.92;;
25531;SDS011;13429;48.816;9.118;2022-08-30T10:15:42;12.35;;;4.20;;
25531;SDS011;13429;48.816;9.118;2022-08-30T10:18:26;8.55;;;4.40;;
25531;SDS011;13429;48.816;9.118;2022-08-30T10:20:36;5.70;;;3.72;;
25531;SDS011;13429;48.816;9.118;2022-08-30T10:25:34;5.55;;;4.32;;
25531;SDS011;13429;48.816;9.118;2022-08-30T10:28:36;7.22;;;4.78;;
25531;SDS011;13429;48.816;9.118;2022-08-30T10:30:55;5.15;;;4.45;;
25531;SDS011;13429;48.816;9.118;2022-08-30T10:33:23;8.00;;;3.88;;
25531;SDS011;13429;48.816;9.118;2022-08-30T10:35:52;4.80;;;3.53;;
25531;SDS011;13429;48.816;9.118;2022-08-30T10:38:29;7.45;;;4.40;;
25531;SDS011;13429;48.816;9.118;2022-08-30T10:41:00;8.23;;;4.35;;
25531;SDS011;13429;48.816;9.118;2022-08-30T10:43:42;8.18;;;4.20;;
25531;SDS011;13429;48.816;9.118;2022-08-30T10:46:13;6.60;;;4.38;;
25531;SDS011;13429;48.816;9.118;2022-08-30T10:48:42;7.50;;;5.18;;
25531;SDS011;13429;48.816;9.118;2022-08-30T10:51:26;11.70;;;4.88;;
25531;SDS011;13429;48.816;9.118;2022-08-30T10:53:56;4.80;;;3.85;;
25531;SDS011;13429;48.816;9.118;2022-08-30T10:56:24;5.07;;;4.05;;
25531;SDS011;13429;48.816;9.118;2022-08-30T10:58:53;5.55;;;4.18;;
25531;SDS011;13429;48.816;9.118;2022-08-30T11:14:14;7.78;;;4.25;;
25531;SDS011;13429;48.816;9.118;2022-08-30T11:16:43;6.75;;;3.55;;
25531;SDS011;13429;48.816;9.118;2022-08-30T11:19:21;4.35;;;3.33;;
25531;SDS011;13429;48.816;9.118;2022-08-30T11:21:49;4.88;;;3.20;;
25531;SDS011;13429;48.816;9.118;2022-08-30T11:39:59;6.85;;;3.83;;
25531;SDS011;13429;48.816;9.118;2022-08-30T11:42:36;5.50;;;4.07;;
25531;SDS011;13429;48.816;9.118;2022-08-30T11:47:51;6.53;;;3.72;;
25531;SDS011;13429;48.816;9.118;2022-08-30T12:10:49;6.13;;;3.72;;
25531;SDS011;13429;48.816;9.118;2022-08-30T12:21:04;5.00;;;3.05;;
25531;SDS011;13429;48.816;9.118;2022-08-30T12:29:04;5.32;;;3.08;;
25531;SDS011;13429;48.816;9.118;2022-08-30T12:31:30;4.80;;;2.85;;
25531;SDS011;13429;48.816;9.118;2022-08-30T12:33:57;7.07;;;4.22;;
25531;SDS011;13429;48.816;9.118;2022-08-30T12:41:31;5.50;;;3.35;;
25531;SDS011;13429;48.816;9.118;2022-08-30T12:43:57;5.72;;;4.15;;
25531;SDS011;13429;48.816;9.118;2022-08-30T12:46:25;4.15;;;3.38;;
25531;SDS011;13429;48.816;9.118;2022-08-30T12:48:51;5.13;;;3.80;;
25531;SDS011;13429;48.816;9.118;2022-08-30T12:51:34;11.75;;;4.10;;
25531;SDS011;13429;48.816;9.118;2022-08-30T12:54:02;5.00;;;3.47;;
25531;SDS011;13429;48.816;9.118;2022-08-30T12:56:46;5.70;;;3.63;;
25531;SDS011;13429;48.816;9.118;2022-08-30T13:02:10;3.83;;;3.25;;
25531;SDS011;13429;48.816;9.118;2022-08-30T13:04:37;5.50;;;3.08;;
25531;SDS011;13429;48.816;9.118;2022-08-30T13:07:04;4.47;;;4.00;;
25531;SDS011;13429;48.816;9.118;2022-08-30T13:12:24;6.75;;;3.17;;
25531;SDS011;13429;48.816;9.118;2022-08-30T13:14:48;4.97;;;3.67;;
25531;SDS011;13429;48.816;9.118;2022-08-30T13:20:05;4.22;;;3.63;;
25531;SDS011;13429;48.816;9.118;2022-08-30T13:22:31;4.80;;;3.97;;
25531;SDS011;13429;48.816;9.118;2022-08-30T13:24:58;5.53;;;3.30;;
25531;SDS011;13429;48.816;9.118;2022-08-30T13:27:24;6.00;;;4.00;;
25531;SDS011;13429;48.816;9.118;2022-08-30T13:29:51;6.13;;;3.85;;
25531;SDS011;13429;48.816;9.118;2022-08-30T13:32:17;4.63;;;3.33;;
25531;SDS011;13429;48.816;9.118;2022-08-30T13:34:43;4.97;;;3.60;;
25531;SDS011;13429;48.816;9.118;2022-08-30T13:37:14;3.75;;;3.28;;
25531;SDS011;13429;48.816;9.118;2022-08-30T13:39:40;4.93;;;3.63;;
25531;SDS011;13429;48.816;9.118;2022-08-30T13:42:06;4.55;;;3.25;;
25531;SDS011;13429;48.816;9.118;2022-08-30T13:44:32;5.32;;;3.75;;
25531;SDS011;13429;48.816;9.118;2022-08-30T13:46:59;5.28;;;3.42;;
25531;SDS011;13429;48.816;9.118;2022-08-30T13:49:28;4.07;;;3.03;;
25531;SDS011;13429;48.816;9.118;2022-08-30T13:51:54;5.63;;;3.60;;
25531;SDS011;13429;48.816;9.118;2022-08-30T13:54:20;5.03;;;3.45;;
25531;SDS011;13429;48.816;9.118;2022-08-30T13:56:47;3.78;;;3.15;;
25531;SDS011;13429;48.816;9.118;2022-08-30T13:59:13;4.72;;;3.22;;
25531;SDS011;13429;48.816;9.118;2022-08-30T14:01:40;3.72;;;2.92;;
25531;SDS011;13429;48.816;9.118;2022-08-30T14:04:06;5.72;;;3.45;;
25531;SDS011;13429;48.816;9.118;2022-08-30T14:06:32;4.90;;;3.60;;
25531;SDS011;13429;48.816;9.118;2022-08-30T14:08:58;4.88;;;3.50;;
25531;SDS011;13429;48.816;9.118;2022-08-30T14:11:24;3.67;;;2.90;;
25531;SDS011;13429;48.816;9.118;2022-08-30T14:13:50;4.90;;;3.90;;
25531;SDS011;13429;48.816;9.118;2022-08-30T14:16:16;4.97;;;3.58;;
25531;SDS011;13429;48.816;9.118;2022-08-30T14:18:42;5.13;;;3.75;;
25531;SDS011;13429;48.816;9.118;2022-08-30T14:21:08;4.28;;;3.30;;
25531;SDS011;13429;48.816;9.118;2022-08-30T14:23:34;6.07;;;3.65;;
25531;SDS011;13429;48.816;9.118;2022-08-30T14:26:01;5.63;;;3.63;;
25531;SDS011;13429;48.816;9.118;2022-08-30T14:28:29;4.88;;;3.72;;
25531;SDS011;13429;48.816;9.118;2022-08-30T14:30:55;4.95;;;3.50;;
25531;SDS011;13429;48.816;9.118;2022-08-30T14:33:21;3.72;;;3.30;;
25531;SDS011;13429;48.816;9.118;2022-08-30T14:35:47;4.97;;;3.58;;
25531;SDS011;13429;48.816;9.118;2022-08-30T14:38:13;5.13;;;3.63;;
25531;SDS011;13429;48.816;9.118;2022-08-30T14:40:39;5.05;;;3.75;;
25531;SDS011;13429;48.816;9.118;2022-08-30T14:43:06;4.68;;;3.72;;
25531;SDS011;13429;48.816;9.118;2022-08-30T14:45:32;4.78;;;3.38;;
25531;SDS011;13429;48.816;9.118;2022-08-30T14:47:58;8.43;;;3.47;;
25531;SDS011;13429;48.816;9.118;2022-08-30T14:50:26;6.85;;;4.05;;
25531;SDS011;13429;48.816;9.118;2022-08-30T14:52:52;7.00;;;3.85;;
25531;SDS011;13429;48.816;9.118;2022-08-30T14:55:18;6.53;;;4.82;;
25531;SDS011;13429;48.816;9.118;2022-08-30T14:57:44;10.35;;;3.80;;
25531;SDS011;13429;48.816;9.118;2022-08-30T15:00:12;5.22;;;3.53;;
25531;SDS011;13429;48.816;9.118;2022-08-30T15:02:39;5.55;;;3.83;;
25531;SDS011;13429;48.816;9.118;2022-08-30T15:05:06;4.95;;;3.55;;
25531;SDS011;13429;48.816;9.118;2022-08-30T15:07:32;5.22;;;4.07;;
25531;SDS011;13429;48.816;9.118;2022-08-30T15:09:58;5.05;;;3.45;;
25531;SDS011;13429;48.816;9.118;2022-08-30T15:12:24;7.13;;;3.65;;
25531;SDS011;13429;48.816;9.118;2022-08-30T15:14:50;10.02;;;3.63;;
25531;SDS011;13429;48.816;9.118;2022-08-30T15:17:16;5.45;;;4.20;;
25531;SDS011;13429;48.816;9.118;2022-08-30T15:19:43;5.38;;;3.92;;
25531;SDS011;13429;48.816;9.118;2022-08-30T15:22:09;4.35;;;3.38;;
25531;SDS011;13429;48.816;9.118;2022-08-30T15:24:35;5.20;;;3.85;;
25531;SDS011;13429;48.816;9.118;2022-08-30T15:27:02;6.60;;;3.35;;
25531;SDS011;13429;48.816;9.118;2022-08-30T15:29:28;4.90;;;3.50;;
25531;SDS011;13429;48.816;9.118;2022-08-30T15:31:54;6.53;;;4.15;;
25531;SDS011;13429;48.816;9.118;2022-08-30T15:34:21;6.03;;;4.32;;
25531;SDS011;13429;48.816;9.118;2022-08-30T15:36:49;6.20;;;4.05;;
25531;SDS011;13429;48.816;9.118;2022-08-30T15:39:16;5.70;;;3.63;;
25531;SDS011;13429;48.816;9.118;2022-08-30T15:41:42;6.18;;;3.92;;
25531;SDS011;13429;48.816;9.118;2022-08-30T15:44:09;5.00;;;4.00;;
25531;SDS011;13429;48.816;9.118;2022-08-30T15:46:37;5.28;;;3.90;;
25531;SDS011;13429;48.816;9.118;2022-08-30T15:49:05;4.80;;;3.67;;
25531;SDS011;13429;48.816;9.118;2022-08-30T15:51:32;7.90;;;3.85;;
25531;SDS011;13429;48.816;9.118;2022-08-30T15:53:59;4.68;;;3.95;;
25531;SDS011;13429;48.816;9.118;2022-08-30T15:56:25;5.25;;;3.65;;
25531;SDS011;13429;48.816;9.118;2022-08-30T15:58:51;5.55;;;3.72;;
25531;SDS011;13429;48.816;9.118;2022-08-30T16:01:17;6.35;;;3.90;;
25531;SDS011;13429;48.816;9.118;2022-08-30T16:03:43;5.07;;;3.95;;
25531;SDS011;13429;48.816;9.118;2022-08-30T16:06:20;5.78;;;4.40;;
25531;SDS011;13429;48.816;9.118;2022-08-30T16:08:46;7.93;;;4.20;;
25531;SDS011;13429;48.816;9.118;2022-08-30T16:11:13;6.22;;;4.05;;
25531;SDS011;13429;48.816;9.118;2022-08-30T16:13:39;6.30;;;3.88;;
25531;SDS011;13429;48.816;9.118;2022-08-30T16:16:06;10.63;;;3.88;;
25531;SDS011;13429;48.816;9.118;2022-08-30T16:18:33;4.43;;;3.72;;
25531;SDS011;13429;48.816;9.118;2022-08-30T16:21:08;4.47;;;3.50;;
25531;SDS011;13429;48.816;9.118;2022-08-30T16:23:35;4.65;;;4.10;;
25531;SDS011;13429;48.816;9.118;2022-08-30T16:26:01;7.72;;;4.15;;
25531;SDS011;13429;48.816;9.118;2022-08-30T16:28:27;8.00;;;4.13;;
25531;SDS011;13429;48.816;9.118;2022-08-30T16:30:53;8.32;;;4.10;;